Time;durP1;ratioP1;P1;durP2;ratioP2;P2;SDS_P1;SDS_P2;PMS_P1;PMS_P2;Temp;Humidity;BMP_temperature;BMP_pressure;BME280_temperature;BME280_humidity;BME280_pressure;Samples;Min_cycle;Max_cycle;Signal;HPM_P1;HPM_P2
2020/12/17 00:02:02;;;;;;;80.18;22.10;;;;;;;3.19;80.17;96772.81;5051306;28;20044;-65
2020/12/17 00:04:29;;;;;;;85.00;21.33;;;;;;;3.13;80.23;96773.81;5051236;28;20052;-66
2020/12/17 00:06:55;;;;;;;73.85;21.27;;;;;;;3.14;80.30;96770.06;5051362;28;20052;-65
2020/12/17 00:09:23;;;;;;;80.20;21.48;;;;;;;3.14;80.35;96773.56;5051272;28;20053;-66
2020/12/17 00:11:49;;;;;;;79.50;22.17;;;;;;;3.16;80.30;96778.69;5051379;28;20495;-66
2020/12/17 00:14:17;;;;;;;87.13;20.98;;;;;;;3.12;80.27;96780.28;5050572;28;20049;-65
2020/12/17 00:16:43;;;;;;;76.30;19.70;;;;;;;3.07;80.36;96780.25;5051381;28;20045;-65
2020/12/17 00:19:09;;;;;;;82.35;19.75;;;;;;;3.04;80.50;96780.78;5050819;28;20052;-66
2020/12/17 00:21:35;;;;;;;72.90;18.33;;;;;;;3.01;80.38;96789.34;5051163;28;20053;-66
2020/12/17 00:24:01;;;;;;;68.75;20.00;;;;;;;2.99;80.21;96788.81;5051235;28;20048;-66
2020/12/17 00:26:28;;;;;;;79.63;20.23;;;;;;;2.99;80.50;96780.75;5051089;28;20045;-65
2020/12/17 00:28:54;;;;;;;83.03;19.10;;;;;;;3.00;80.43;96779.66;5051022;28;20048;-65
2020/12/17 00:31:21;;;;;;;78.47;19.73;;;;;;;3.01;80.61;96775.91;5050391;28;20657;-65
2020/12/17 00:33:48;;;;;;;73.28;20.20;;;;;;;3.03;80.56;96776.47;5050688;28;20041;-65
2020/12/17 00:36:17;;;;;;;72.10;18.90;;;;;;;3.06;80.46;96784.00;5050383;28;20049;-65
2020/12/17 00:38:43;;;;;;;66.93;18.63;;;;;;;3.09;80.59;96780.81;5050879;28;20078;-65
2020/12/17 00:41:11;;;;;;;66.85;17.92;;;;;;;3.11;80.35;96784.03;5049845;28;20049;-66
2020/12/17 00:43:38;;;;;;;78.82;19.23;;;;;;;3.10;80.37;96777.03;5050793;28;20099;-65
2020/12/17 00:46:04;;;;;;;73.18;18.95;;;;;;;3.11;80.38;96781.34;5050217;28;20063;-66
2020/12/17 00:48:30;;;;;;;77.10;19.33;;;;;;;3.08;80.14;96792.63;5050707;28;20500;-65
2020/12/17 00:50:56;;;;;;;71.97;19.52;;;;;;;3.10;79.87;96812.84;5050547;28;20059;-65
2020/12/17 00:53:22;;;;;;;71.18;18.55;;;;;;;3.10;79.56;96812.84;5050769;28;20451;-66
2020/12/17 00:55:48;;;;;;;83.80;19.98;;;;;;;3.10;79.73;96812.84;5050661;28;20077;-66
2020/12/17 00:58:14;;;;;;;76.05;18.88;;;;;;;3.06;79.90;96814.41;5050001;28;20155;-65
2020/12/17 01:00:41;;;;;;;76.05;19.13;;;;;;;3.04;79.90;96796.91;5050121;28;20048;-65
2020/12/17 01:03:07;;;;;;;87.60;19.90;;;;;;;3.06;80.07;96795.56;5049693;28;20063;-65
2020/12/17 01:05:33;;;;;;;69.03;19.23;;;;;;;3.07;80.09;96794.50;5050253;28;20515;-65
2020/12/17 01:07:59;;;;;;;78.13;19.75;;;;;;;3.09;80.20;96792.38;5050408;28;20094;-65
2020/12/17 01:10:25;;;;;;;67.20;18.42;;;;;;;3.03;80.19;96795.31;5049611;28;20381;-66
2020/12/17 01:12:51;;;;;;;77.55;18.58;;;;;;;3.03;80.28;96789.94;5050341;28;20056;-65
2020/12/17 01:15:17;;;;;;;72.40;17.45;;;;;;;3.03;80.44;96789.94;5049534;28;20059;-65
2020/12/17 01:17:44;;;;;;;74.13;18.90;;;;;;;3.01;80.58;96789.34;5050216;28;20052;-65
2020/12/17 01:20:10;;;;;;;74.40;19.15;;;;;;;2.97;80.53;96788.25;5049389;28;20067;-66
2020/12/17 01:22:36;;;;;;;62.72;17.63;;;;;;;2.91;80.78;96797.34;5050701;28;20736;-65
2020/12/17 01:25:02;;;;;;;60.75;16.67;;;;;;;2.88;80.80;96794.13;5049699;28;20128;-66
2020/12/17 01:27:29;;;;;;;62.47;17.33;;;;;;;2.88;80.56;96791.44;5049994;28;20045;-66
2020/12/17 01:29:55;;;;;;;76.68;17.50;;;;;;;2.90;80.64;96790.34;5049910;28;20414;-66
2020/12/17 01:32:21;;;;;;;69.40;17.63;;;;;;;2.93;80.81;96789.84;5049325;28;20049;-65
2020/12/17 01:34:48;;;;;;;72.30;17.10;;;;;;;2.91;80.54;96798.16;5049963;28;20052;-66
2020/12/17 01:37:14;;;;;;;59.88;15.48;;;;;;;2.94;80.82;96802.22;5049368;28;20037;-66
2020/12/17 01:39:40;;;;;;;51.83;14.80;;;;;;;2.94;80.83;96799.53;5049724;28;20102;-65
2020/12/17 01:42:06;;;;;;;80.10;15.68;;;;;;;2.87;80.69;96802.44;5048600;28;20103;-66
2020/12/17 01:44:32;;;;;;;60.70;14.18;;;;;;;2.82;80.37;96800.53;5048446;28;20053;-65
2020/12/17 02:46:43;;;;;;;65.72;16.02;;;;;;;2.42;81.61;96801.00;5048441;28;20122;-66
2020/12/17 02:49:09;;;;;;;69.65;16.30;;;;;;;2.46;81.88;96806.69;5068801;28;20442;-65
2020/12/17 02:51:38;;;;;;;69.43;16.52;;;;;;;2.45;81.97;96800.47;5069140;28;20044;-65
2020/12/17 02:54:04;;;;;;;73.63;15.48;;;;;;;2.50;81.82;96805.09;5068738;28;20118;-67
2020/12/17 02:56:30;;;;;;;77.93;16.42;;;;;;;2.55;81.62;96797.06;5069118;28;20512;-65
2020/12/17 02:58:56;;;;;;;63.42;15.82;;;;;;;2.56;81.69;96804.91;5069111;28;20063;-66
2020/12/17 03:01:22;;;;;;;67.40;16.02;;;;;;;2.56;81.63;96801.41;5067913;28;20075;-65
2020/12/17 03:03:49;;;;;;;72.55;16.60;;;;;;;2.55;81.65;96799.75;5068964;28;20130;-65
2020/12/17 03:06:15;;;;;;;58.13;15.07;;;;;;;2.58;81.71;96793.88;5071266;28;20660;-65
2020/12/17 03:08:41;;;;;;;69.65;15.63;;;;;;;2.62;81.44;96800.38;5072727;28;20060;-66
2020/12/17 03:11:08;;;;;;;63.08;15.63;;;;;;;2.63;81.50;96796.59;5072097;28;20052;-66
2020/12/17 03:13:34;;;;;;;70.15;16.08;;;;;;;2.62;80.84;96795.00;5072340;28;20055;-65
2020/12/17 03:16:00;;;;;;;84.55;16.23;;;;;;;2.53;80.80;96804.59;5070788;28;20514;-66
2020/12/17 03:18:26;;;;;;;51.78;13.88;;;;;;;2.54;80.99;96819.63;5052233;28;20576;-65
2020/12/17 03:20:53;;;;;;;72.15;14.70;;;;;;;2.54;81.04;96823.13;5052357;28;20049;-66
2020/12/17 03:23:19;;;;;;;68.72;15.35;;;;;;;2.55;80.84;96826.63;5051840;28;20130;-65
2020/12/17 03:25:45;;;;;;;54.20;14.00;;;;;;;2.56;80.96;96829.09;5052426;28;20087;-65
2020/12/17 03:28:11;;;;;;;62.22;14.20;;;;;;;2.57;81.13;96846.03;5051760;28;20178;-65
2020/12/17 03:30:37;;;;;;;50.17;14.02;;;;;;;2.57;80.75;96857.59;5052304;28;20053;-65
2020/12/17 03:33:03;;;;;;;51.13;13.98;;;;;;;2.58;80.84;96850.34;5051497;28;20072;-66
2020/12/17 03:35:29;;;;;;;58.95;14.45;;;;;;;2.61;80.87;96844.47;5052150;28;20067;-66
2020/12/17 03:37:58;;;;;;;58.53;15.38;;;;;;;2.64;80.55;96846.63;5052181;28;20091;-65
2020/12/17 03:40:24;;;;;;;64.10;14.75;;;;;;;2.66;80.77;96844.47;5051343;28;20045;-65
2020/12/17 03:42:50;;;;;;;56.00;13.95;;;;;;;2.64;81.00;96838.56;5052019;28;20041;-66
2020/12/17 03:45:16;;;;;;;55.97;14.20;;;;;;;2.65;80.82;96840.16;5051291;28;20148;-66
2020/12/17 03:47:42;;;;;;;58.70;15.50;;;;;;;2.68;80.76;96836.97;5068000;28;20041;-65
2020/12/17 03:50:08;;;;;;;53.35;13.77;;;;;;;2.67;80.81;96835.38;5071348;28;20045;-65
2020/12/17 03:52:34;;;;;;;54.60;14.38;;;;;;;2.68;80.77;96828.91;5071922;28;20052;-65
2020/12/17 03:55:01;;;;;;;63.45;14.70;;;;;;;2.65;80.71;96815.16;5071778;28;20037;-65
2020/12/17 03:57:27;;;;;;;50.45;13.50;;;;;;;2.63;80.75;96811.94;5071445;28;20052;-65
2020/12/17 03:59:53;;;;;;;64.72;14.75;;;;;;;2.64;80.91;96808.16;5071657;28;20494;-65
2020/12/17 04:02:19;;;;;;;56.45;13.93;;;;;;;2.62;80.91;96800.38;5071004;28;20146;-65
2020/12/17 04:04:46;;;;;;;51.72;13.48;;;;;;;2.65;81.12;96804.41;5071585;28;20075;-65
2020/12/17 04:07:12;;;;;;;63.47;14.68;;;;;;;2.67;81.13;96797.72;5071047;28;20072;-66
2020/12/17 04:09:39;;;;;;;63.15;15.10;;;;;;;2.68;80.98;96807.41;5071704;28;20049;-65
2020/12/17 04:12:06;;;;;;;59.90;14.32;;;;;;;2.70;81.21;96805.25;5070759;28;20041;-66
2020/12/17 04:14:32;;;;;;;74.43;13.43;;;;;;;2.68;81.01;96804.72;5071395;28;20055;-66
2020/12/17 04:16:58;;;;;;;65.28;13.38;;;;;;;2.67;80.83;96830.00;5070203;28;20048;-66
2020/12/17 04:19:24;;;;;;;49.55;12.73;;;;;;;2.70;81.02;96824.09;5070962;28;20063;-65
2020/12/17 04:21:50;;;;;;;44.72;12.45;;;;;;;2.68;80.63;96825.41;5071148;28;20462;-65
2020/12/17 04:24:16;;;;;;;40.03;11.30;;;;;;;2.72;80.31;96838.09;5070658;28;20569;-66
2020/12/17 04:26:42;;;;;;;47.47;12.23;;;;;;;2.72;80.35;96843.47;5071188;28;20040;-65
2020/12/17 04:29:09;;;;;;;55.08;13.48;;;;;;;2.72;80.38;96837.28;5070766;28;20098;-66
2020/12/17 04:31:35;;;;;;;52.63;12.93;;;;;;;2.76;80.21;96843.75;5071005;28;20055;-65
2020/12/17 04:34:01;;;;;;;62.35;14.48;;;;;;;2.73;80.30;96855.84;5070612;28;20049;-67
2020/12/17 04:36:27;;;;;;;51.28;12.90;;;;;;;2.78;80.45;96852.41;5071067;28;20097;-65
2020/12/17 04:38:53;;;;;;;54.53;13.77;;;;;;;2.77;80.38;96846.22;5070972;28;20052;-65
2020/12/17 04:41:19;;;;;;;64.45;14.20;;;;;;;2.79;80.33;96845.94;5070225;28;20101;-65
2020/12/17 04:43:46;;;;;;;55.28;12.77;;;;;;;2.64;79.90;96862.75;5070807;28;20055;-66
2020/12/17 04:46:18;;;;;;;56.85;12.80;;;;;;;2.64;80.06;96852.00;5066785;28;20044;-65
2020/12/17 04:48:46;;;;;;;51.30;11.82;;;;;;;2.66;80.38;96860.59;5050876;28;20052;-65
2020/12/17 04:51:12;;;;;;;53.30;12.30;;;;;;;2.64;80.57;96849.31;5050257;28;20516;-65
2020/12/17 04:53:44;;;;;;;52.78;11.80;;;;;;;2.68;80.65;96865.75;5050668;28;20067;-65
2020/12/17 04:56:12;;;;;;;46.80;11.88;;;;;;;2.72;80.36;96865.00;5050354;28;20045;-66
2020/12/17 04:58:44;;;;;;;58.90;11.40;;;;;;;2.72;80.03;96866.88;5050336;28;20514;-66
2020/12/17 05:01:15;;;;;;;45.92;11.38;;;;;;;2.72;79.73;96878.44;5050242;28;20045;-66
2020/12/17 05:03:46;;;;;;;43.47;11.13;;;;;;;2.75;79.91;96877.91;5050774;28;20048;-65
2020/12/17 05:06:16;;;;;;;53.97;11.07;;;;;;;2.72;80.16;96870.38;5050101;28;20047;-66
2020/12/17 05:08:42;;;;;;;53.97;11.73;;;;;;;2.73;80.23;96874.69;5050599;28;20052;-65
2020/12/17 05:11:08;;;;;;;55.55;12.07;;;;;;;2.76;80.26;96878.72;5049726;28;20045;-66
2020/12/17 05:13:34;;;;;;;52.22;11.57;;;;;;;2.79;80.17;96881.72;5049991;28;20069;-66
2020/12/17 05:16:00;;;;;;;61.63;11.52;;;;;;;2.81;80.19;96887.66;5052300;28;20049;-65
2020/12/17 05:18:27;;;;;;;33.63;10.82;;;;;;;2.81;79.95;96889.53;5070008;28;20098;-65
2020/12/17 05:20:54;;;;;;;55.67;12.00;;;;;;;2.81;80.23;96884.94;5070118;28;20496;-65
2020/12/17 05:23:24;;;;;;;46.33;11.35;;;;;;;2.81;79.99;96895.72;5069692;28;20131;-65
2020/12/17 05:25:51;;;;;;;55.63;12.02;;;;;;;2.82;79.79;96889.28;5070178;28;20044;-65
2020/12/17 05:28:17;;;;;;;47.95;11.77;;;;;;;2.82;79.92;96886.59;5068646;28;20053;-65
2020/12/17 05:30:43;;;;;;;54.70;12.00;;;;;;;2.83;79.85;96880.16;5070163;28;20044;-65
2020/12/17 05:33:09;;;;;;;54.58;10.60;;;;;;;2.81;79.89;96871.50;5069713;28;20044;-65
2020/12/17 05:35:38;;;;;;;53.22;11.13;;;;;;;2.80;80.00;96866.38;5069831;28;20429;-65
2020/12/17 05:38:06;;;;;;;61.63;11.10;;;;;;;2.81;79.95;96868.81;5069392;28;20048;-65
2020/12/17 05:40:39;;;;;;;60.40;12.13;;;;;;;2.77;79.93;96867.72;5070148;28;20122;-66
2020/12/17 05:43:06;;;;;;;49.20;10.45;;;;;;;2.69;80.13;96870.06;5069176;28;20484;-65
2020/12/17 05:45:33;;;;;;;59.30;11.38;;;;;;;2.70;80.36;96872.50;5069880;28;20080;-65
2020/12/17 05:48:14;;;;;;;59.90;11.15;;;;;;;2.67;80.33;96883.78;5069596;28;20052;-65
2020/12/17 05:50:57;;;;;;;69.82;12.05;;;;;;;2.61;80.13;96890.97;5067770;28;20040;-65
2020/12/17 05:53:25;;;;;;;47.40;10.18;;;;;;;2.53;80.14;96902.16;5069359;28;20492;-65
2020/12/17 05:56:01;;;;;;;63.72;10.88;;;;;;;2.50;80.46;96888.41;5069883;28;20044;-65
2020/12/17 05:58:37;;;;;;;71.63;12.05;;;;;;;2.51;80.93;96890.88;5069366;28;20045;-66
2020/12/17 06:01:08;;;;;;;61.13;10.55;;;;;;;2.48;80.85;96895.94;5069124;28;20062;-66
2020/12/17 06:03:34;;;;;;;64.35;10.30;;;;;;;2.48;80.96;96901.31;5069837;28;20048;-65
2020/12/17 06:06:04;;;;;;;63.45;11.15;;;;;;;2.48;80.81;96899.44;5069640;28;20052;-65
2020/12/17 06:08:34;;;;;;;40.75;9.38;;;;;;;2.37;80.32;96902.28;5069453;28;20040;-66
2020/12/17 06:11:04;;;;;;;61.45;11.70;;;;;;;2.37;80.67;96904.97;5069684;28;20048;-66
2020/12/17 06:13:35;;;;;;;58.17;10.68;;;;;;;2.40;80.97;96904.44;5068813;28;20487;-65
2020/12/17 06:16:04;;;;;;;55.42;10.05;;;;;;;2.41;81.27;96917.66;5068942;28;20045;-66
2020/12/17 06:18:37;;;;;;;59.78;10.93;;;;;;;2.44;81.05;96922.50;5069384;28;20045;-65
2020/12/17 06:21:08;;;;;;;59.80;9.98;;;;;;;2.47;81.01;96921.19;5051838;28;20045;-66
2020/12/17 06:23:34;;;;;;;55.75;9.60;;;;;;;2.50;81.09;96929.53;5049627;28;20053;-65
2020/12/17 06:26:00;;;;;;;63.80;10.25;;;;;;;2.55;80.89;96918.03;5049473;28;20056;-65
2020/12/17 06:28:48;;;;;;;35.92;9.35;;;;;;;2.60;80.97;96915.41;5049114;28;20044;-67
2020/12/17 06:31:17;;;;;;;62.72;10.55;;;;;;;2.62;80.83;96918.69;5044199;28;20182;-66
2020/12/17 06:33:44;;;;;;;59.60;9.70;;;;;;;2.61;80.63;96915.19;5048846;28;20041;-65
2020/12/17 06:36:18;;;;;;;64.28;10.30;;;;;;;2.59;80.52;96914.59;5048891;28;20110;-66
2020/12/17 06:38:45;;;;;;;49.38;8.48;;;;;;;2.46;80.13;96920.38;5049460;28;20056;-65
2020/12/17 06:41:18;;;;;;;42.70;8.77;;;;;;;2.44;80.27;96930.56;5052079;28;20110;-67
2020/12/17 06:43:45;;;;;;;62.38;10.45;;;;;;;2.47;80.46;96938.13;5053204;28;20049;-65
2020/12/17 06:46:33;;;;;;;62.53;9.60;;;;;;;2.50;80.66;96936.81;5052530;28;20056;-65
2020/12/17 06:48:59;;;;;;;66.63;9.40;;;;;;;2.49;80.80;96941.38;5054007;28;20069;-65
2020/12/17 06:51:37;;;;;;;62.03;10.55;;;;;;;2.54;80.96;96948.69;5052722;28;20673;-65
2020/12/17 06:54:06;;;;;;;54.88;9.48;;;;;;;2.60;80.81;96947.66;5052573;28;20048;-66
2020/12/17 06:56:33;;;;;;;60.22;9.68;;;;;;;2.57;80.83;96940.94;5052945;28;20053;-65
2020/12/17 06:59:19;;;;;;;54.05;9.45;;;;;;;2.54;80.88;96946.00;5052878;28;20048;-65
2020/12/17 07:01:46;;;;;;;60.63;9.63;;;;;;;2.58;80.89;96949.81;5052471;28;20053;-65
2020/12/17 07:04:12;;;;;;;49.95;8.73;;;;;;;2.60;80.76;96953.03;5052264;28;20049;-65
2020/12/17 07:06:39;;;;;;;45.53;9.15;;;;;;;2.54;80.75;96954.88;5052778;28;20052;-65
2020/12/17 07:09:06;;;;;;;32.80;7.85;;;;;;;2.46;80.44;96951.84;5052372;28;20053;-65
2020/12/17 07:11:45;;;;;;;51.22;8.73;;;;;;;2.50;80.59;96958.31;5052674;28;20147;-65
2020/12/17 07:14:18;;;;;;;61.40;8.25;;;;;;;2.48;80.41;96961.25;5052116;28;20053;-65
2020/12/17 07:16:54;;;;;;;47.25;8.57;;;;;;;2.43;80.80;96961.19;5052520;28;20049;-66
2020/12/17 07:19:22;;;;;;;50.55;9.07;;;;;;;2.37;81.11;96953.34;5052832;28;20403;-65
2020/12/17 07:21:58;;;;;;;50.45;9.57;;;;;;;2.46;81.21;96973.34;5051786;28;20041;-67
2020/12/17 07:24:27;;;;;;;34.97;7.82;;;;;;;2.48;81.33;96981.94;5051787;28;20041;-66
2020/12/17 07:26:54;;;;;;;54.42;8.45;;;;;;;2.39;81.23;96984.25;5052487;28;20041;-67
2020/12/17 07:29:32;;;;;;;50.92;7.93;;;;;;;1.98;81.91;96989.09;5051914;28;20041;-67
2020/12/17 07:32:23;;;;;;;49.13;8.35;;;;;;;2.06;82.12;96990.56;5052318;28;20057;-68
2020/12/17 07:34:50;;;;;;;55.13;8.20;;;;;;;2.14;81.84;96992.00;5052005;28;20064;-67
2020/12/17 07:37:39;;;;;;;43.42;8.05;;;;;;;2.20;81.94;96999.09;5051803;28;20382;-67
2020/12/17 07:40:16;;;;;;;78.18;9.60;;;;;;;2.30;81.88;97002.72;5041797;28;20076;-68
2020/12/17 07:42:42;;;;;;;66.40;9.15;;;;;;;2.26;81.83;97009.66;5052056;28;20500;-68
2020/12/17 07:45:09;;;;;;;58.88;8.52;;;;;;;2.26;81.77;96996.22;5051361;28;20048;-67
2020/12/17 07:47:35;;;;;;;46.72;8.20;;;;;;;2.26;81.83;97006.97;5052096;28;20052;-67
2020/12/17 07:50:01;;;;;;;55.83;8.82;;;;;;;2.35;81.83;96999.28;5052520;28;20056;-68
2020/12/17 07:52:32;;;;;;;50.60;8.73;;;;;;;2.44;81.77;97003.13;5050920;28;20048;-67
2020/12/17 07:54:59;;;;;;;46.72;7.93;;;;;;;2.48;81.43;97011.53;5068951;28;20538;-66
2020/12/17 07:57:25;;;;;;;49.97;8.25;;;;;;;2.50;81.33;97009.38;5071177;28;20040;-66
2020/12/17 07:59:51;;;;;;;65.18;8.82;;;;;;;2.57;81.48;97004.66;5071012;28;20048;-67
2020/12/17 08:02:17;;;;;;;48.58;7.97;;;;;;;2.65;81.24;97001.50;5050553;28;20056;-66
2020/12/17 08:04:48;;;;;;;39.25;7.63;;;;;;;2.69;81.10;96994.56;5061483;28;20045;-67
2020/12/17 08:07:14;;;;;;;47.97;7.32;;;;;;;2.60;80.29;96999.56;5070915;28;20045;-67
2020/12/17 08:09:41;;;;;;;31.58;6.90;;;;;;;2.62;80.26;97010.09;5065147;28;20049;-67
2020/12/17 08:12:11;;;;;;;54.22;7.93;;;;;;;2.49;80.31;97013.16;5050544;28;20052;-68
2020/12/17 08:14:37;;;;;;;59.65;7.50;;;;;;;2.52;80.36;97009.97;5051512;28;20057;-68
2020/12/17 08:17:04;;;;;;;48.38;7.63;;;;;;;2.53;80.30;97011.59;5050850;28;20104;-67
2020/12/17 08:19:30;;;;;;;56.70;7.97;;;;;;;2.52;80.40;97018.03;5054763;28;20048;-67
2020/12/17 08:21:58;;;;;;;47.30;7.57;;;;;;;2.57;80.14;97016.22;5071041;28;20044;-67
2020/12/17 08:24:25;;;;;;;29.58;7.32;;;;;;;2.62;80.24;97015.47;5070670;28;20044;-67
2020/12/17 08:26:53;;;;;;;44.72;7.93;;;;;;;2.65;80.36;97009.56;5070555;28;20522;-66
2020/12/17 08:29:22;;;;;;;48.67;8.10;;;;;;;2.74;80.88;97024.22;5070582;28;20045;-67
2020/12/17 08:31:49;;;;;;;108.30;10.82;;;;;;;2.80;80.75;97023.19;5070331;28;20537;-66
2020/12/17 08:34:15;;;;;;;55.88;8.15;;;;;;;2.78;80.21;97027.22;5069922;28;20041;-67
2020/12/17 08:36:41;;;;;;;63.03;11.65;;;;;;;2.79;80.23;97032.34;5070421;28;20078;-67
2020/12/17 08:39:08;;;;;;;44.45;8.20;;;;;;;2.76;79.94;97038.19;5070381;28;20052;-67
2020/12/17 08:41:37;;;;;;;49.63;7.78;;;;;;;2.80;79.83;97044.72;5070221;28;20060;-67
2020/12/17 08:44:05;;;;;;;54.35;8.07;;;;;;;2.76;79.94;97043.59;5070396;28;20044;-66
2020/12/17 08:46:37;;;;;;;55.25;8.05;;;;;;;2.72;79.76;97039.78;5066030;28;20049;-68
2020/12/17 08:49:07;;;;;;;62.55;8.40;;;;;;;2.70;80.12;97043.78;5051326;28;20553;-67
2020/12/17 08:51:35;;;;;;;48.53;7.68;;;;;;;2.72;80.28;97042.47;5055053;28;20048;-68
2020/12/17 08:54:01;;;;;;;63.15;8.35;;;;;;;2.79;80.60;97045.78;5069881;28;20072;-69
2020/12/17 08:56:27;;;;;;;48.00;7.90;;;;;;;2.84;80.73;97053.91;5070489;28;20048;-66
2020/12/17 08:58:55;;;;;;;61.05;8.35;;;;;;;2.93;80.79;97058.88;5069600;28;20058;-68
2020/12/17 09:01:26;;;;;;;51.47;8.18;;;;;;;2.94;80.51;97063.16;5060013;28;20411;-67
2020/12/17 09:03:54;;;;;;;47.38;7.95;;;;;;;2.97;80.11;97073.41;5059672;28;20189;-67
2020/12/17 09:06:28;;;;;;;110.68;10.13;;;;;;;2.99;80.12;97076.69;5057739;28;20049;-67
2020/12/17 09:08:55;;;;;;;53.97;8.80;;;;;;;3.02;79.85;97079.66;5067902;28;20055;-67
2020/12/17 09:11:29;;;;;;;47.55;8.18;;;;;;;3.01;79.73;97082.63;5068728;28;20051;-67
2020/12/17 09:13:59;;;;;;;146.68;11.75;;;;;;;3.03;79.58;97083.19;5068786;28;20408;-66
2020/12/17 09:16:28;;;;;;;69.82;8.55;;;;;;;3.01;79.27;97082.63;5067926;28;20055;-67
2020/12/17 09:18:55;;;;;;;106.65;10.07;;;;;;;2.91;79.73;97087.88;5069198;28;20079;-67
2020/12/17 09:21:21;;;;;;;115.53;10.70;;;;;;;2.99;79.79;97087.44;5067315;28;20055;-67
2020/12/17 09:23:54;;;;;;;55.90;9.18;;;;;;;3.03;79.75;97091.25;5069286;28;20052;-66
2020/12/17 09:26:20;;;;;;;50.70;7.05;;;;;;;3.05;79.75;97086.44;5061408;28;20037;-68
2020/12/17 09:28:50;;;;;;;97.15;10.55;;;;;;;3.06;79.54;97090.75;5059164;28;20044;-67
2020/12/17 09:31:21;;;;;;;50.33;7.80;;;;;;;3.02;79.68;97084.22;5068643;28;20044;-67
2020/12/17 09:33:47;;;;;;;55.38;8.25;;;;;;;3.03;79.75;97085.88;5069529;28;20059;-67
2020/12/17 09:36:15;;;;;;;54.38;7.60;;;;;;;3.03;79.73;97091.25;5065804;28;20040;-66
2020/12/17 09:38:41;;;;;;;61.80;8.60;;;;;;;3.03;79.80;97085.88;5069704;28;20495;-67
2020/12/17 09:41:07;;;;;;;42.53;6.90;;;;;;;3.09;79.99;97087.56;5069175;28;20052;-68
2020/12/17 09:43:33;;;;;;;59.63;7.90;;;;;;;3.01;79.93;97082.63;5068788;28;20047;-68
2020/12/17 09:45:59;;;;;;;56.90;6.97;;;;;;;3.02;79.42;97092.31;5069447;28;20043;-68
2020/12/17 09:48:27;;;;;;;47.03;8.07;;;;;;;2.84;79.34;97088.06;5069094;28;20467;-67
2020/12/17 09:50:55;;;;;;;48.08;7.45;;;;;;;2.96;79.10;97088.75;5053213;28;20055;-68
2020/12/17 09:53:22;;;;;;;61.97;8.35;;;;;;;2.91;79.68;97088.69;5062261;28;20070;-68
2020/12/17 09:55:49;;;;;;;69.45;8.93;;;;;;;2.89;79.94;97088.13;5057720;28;20053;-67
2020/12/17 09:58:15;;;;;;;68.07;8.48;;;;;;;2.72;80.29;97082.81;5062050;28;20061;-67
2020/12/17 10:00:41;;;;;;;76.57;9.32;;;;;;;2.79;80.76;97096.88;5061240;28;20045;-67
2020/12/17 10:03:07;;;;;;;91.70;9.77;;;;;;;2.91;80.76;97099.44;5055207;28;20138;-68
2020/12/17 10:05:33;;;;;;;70.43;8.35;;;;;;;2.94;80.48;97108.91;5061752;28;20049;-67
2020/12/17 10:07:59;;;;;;;54.03;7.72;;;;;;;3.04;80.28;97098.28;5063772;28;20044;-67
2020/12/17 10:10:26;;;;;;;73.90;8.93;;;;;;;3.10;80.08;97100.75;5054769;28;20103;-67
2020/12/17 10:12:52;;;;;;;62.60;8.95;;;;;;;3.13;80.13;97100.25;5057319;28;20041;-67
2020/12/17 10:15:18;;;;;;;57.42;8.00;;;;;;;3.24;80.12;97100.38;5062651;28;20055;-68
2020/12/17 10:17:44;;;;;;;70.35;8.13;;;;;;;3.33;79.51;97099.66;5061739;28;20583;-67
2020/12/17 10:20:10;;;;;;;66.38;7.80;;;;;;;3.38;79.04;97096.19;5066471;28;20044;-67
2020/12/17 10:22:36;;;;;;;64.90;8.02;;;;;;;3.39;79.00;97095.13;5059802;28;20045;-66
2020/12/17 10:25:03;;;;;;;59.10;7.47;;;;;;;3.25;78.72;97094.72;5060895;28;20094;-67
2020/12/17 10:27:30;;;;;;;56.33;8.10;;;;;;;3.29;79.21;97095.03;5057031;28;20044;-67
2020/12/17 10:29:56;;;;;;;67.75;8.80;;;;;;;3.29;79.42;97095.03;5061143;28;20045;-67
2020/12/17 10:32:22;;;;;;;74.30;8.43;;;;;;;3.40;79.35;97099.47;5062204;28;20047;-68
2020/12/17 10:34:48;;;;;;;67.38;8.68;;;;;;;3.50;78.92;97098.72;5064751;28;20505;-70
2020/12/17 10:37:14;;;;;;;73.13;8.20;;;;;;;3.60;78.98;97098.84;5064269;28;20040;-67
2020/12/17 10:39:42;;;;;;;70.18;8.18;;;;;;;3.72;78.63;97091.44;5062890;28;20048;-68
2020/12/17 10:42:08;;;;;;;58.88;8.50;;;;;;;3.85;78.40;97093.69;5058622;28;20052;-68
2020/12/17 10:44:36;;;;;;;59.97;8.27;;;;;;;4.01;78.79;97096.50;5065719;28;20256;-68
2020/12/17 10:47:02;;;;;;;72.53;8.25;;;;;;;4.20;77.87;97095.03;5061773;28;20045;-68
2020/12/17 10:49:28;;;;;;;59.42;7.75;;;;;;;4.19;76.85;97093.41;5064051;28;20541;-68
2020/12/17 10:51:54;;;;;;;87.25;8.10;;;;;;;4.26;76.59;97088.59;5058933;28;20045;-67
2020/12/17 10:54:20;;;;;;;103.63;9.43;;;;;;;4.34;76.88;97090.81;5065350;28;20048;-68
2020/12/17 10:56:47;;;;;;;76.40;7.70;;;;;;;4.41;76.71;97099.50;5067558;28;20052;-69
2020/12/17 10:59:13;;;;;;;81.45;7.70;;;;;;;4.35;75.12;97097.84;5065573;28;20146;-68
2020/12/17 11:01:40;;;;;;;123.63;9.60;;;;;;;4.31;75.12;97101.31;5064925;28;20578;-68
2020/12/17 11:04:06;;;;;;;82.72;8.57;;;;;;;4.31;74.79;97096.72;5066279;28;20043;-68
2020/12/17 11:06:35;;;;;;;99.90;9.02;;;;;;;4.21;74.56;97096.66;5067508;28;20056;-67
2020/12/17 11:09:01;;;;;;;85.97;7.85;;;;;;;4.24;75.26;97090.75;5068762;28;20059;-69
2020/12/17 11:11:27;;;;;;;77.78;7.80;;;;;;;4.35;75.65;97097.03;5068947;28;20464;-68
2020/12/17 11:13:53;;;;;;;81.10;8.55;;;;;;;4.48;75.30;97095.75;5069349;28;20052;-68
2020/12/17 11:16:20;;;;;;;72.95;8.23;;;;;;;4.56;75.18;97092.56;5068439;28;20067;-68
2020/12/17 11:18:47;;;;;;;75.35;8.20;;;;;;;4.65;75.28;97085.63;5069218;28;20056;-68
2020/12/17 11:21:19;;;;;;;72.88;7.45;;;;;;;4.68;75.00;97090.47;5050224;28;20041;-68
2020/12/17 11:23:45;;;;;;;84.20;8.35;;;;;;;4.70;74.43;97093.72;5052397;28;20051;-68
2020/12/17 11:26:11;;;;;;;77.75;8.45;;;;;;;4.72;74.07;97087.00;5067219;28;20775;-68
2020/12/17 11:28:37;;;;;;;73.32;7.97;;;;;;;4.83;73.83;97077.06;5067462;28;20049;-68
2020/12/17 11:31:03;;;;;;;73.00;7.22;;;;;;;5.00;73.88;97076.03;5068871;28;20439;-68
2020/12/17 11:33:29;;;;;;;86.20;8.95;;;;;;;5.03;73.48;97075.50;5068348;28;20047;-68
2020/12/17 11:35:56;;;;;;;80.03;8.30;;;;;;;5.10;72.64;97076.88;5068689;28;20124;-67
2020/12/17 11:38:22;;;;;;;72.47;8.02;;;;;;;5.15;72.60;97073.38;5068154;28;20097;-68
2020/12/17 11:40:48;;;;;;;79.68;8.77;;;;;;;5.25;72.84;97068.03;5068917;28;20048;-69
2020/12/17 11:43:14;;;;;;;74.57;7.53;;;;;;;5.40;72.83;97065.34;5068523;28;20055;-70
2020/12/17 11:45:40;;;;;;;73.43;8.18;;;;;;;5.33;71.80;97064.00;5068367;28;20044;-68
2020/12/17 11:48:06;;;;;;;97.47;8.80;;;;;;;5.30;71.71;97059.94;5068228;28;20048;-69
2020/12/17 11:50:32;;;;;;;66.47;8.18;;;;;;;5.26;71.70;97052.63;5055617;28;20080;-69
2020/12/17 11:52:59;;;;;;;76.20;8.32;;;;;;;5.18;72.26;97053.97;5048914;28;20408;-68
2020/12/17 11:55:25;;;;;;;66.85;7.50;;;;;;;5.23;72.74;97054.78;5047804;28;20776;-68
2020/12/17 11:57:51;;;;;;;69.78;7.93;;;;;;;5.29;72.57;97058.31;5048606;28;20076;-68
2020/12/17 12:00:17;;;;;;;74.43;8.40;;;;;;;5.45;73.03;97059.97;5047967;28;20056;-67
2020/12/17 12:02:43;;;;;;;59.70;8.23;;;;;;;5.54;72.94;97051.34;5050196;28;20044;-68
2020/12/17 12:05:10;;;;;;;57.08;8.55;;;;;;;5.59;72.89;97056.75;5050916;28;20076;-67
2020/12/17 12:07:36;;;;;;;53.25;8.35;;;;;;;5.60;72.44;97050.25;5051578;28;20049;-68
2020/12/17 12:10:03;;;;;;;62.53;8.70;;;;;;;5.66;72.63;97049.19;5050987;28;20181;-70
2020/12/17 12:12:29;;;;;;;50.65;8.23;;;;;;;5.68;72.33;97050.53;5051200;28;20037;-68
2020/12/17 12:14:55;;;;;;;47.33;8.13;;;;;;;5.68;72.05;97052.41;5051153;28;20177;-67
2020/12/17 12:17:21;;;;;;;58.90;8.20;;;;;;;5.65;72.09;97051.06;5050126;28;20053;-67
2020/12/17 12:19:47;;;;;;;67.22;8.80;;;;;;;5.60;71.88;97055.66;5051238;28;20057;-68
2020/12/17 12:22:13;;;;;;;57.95;8.07;;;;;;;5.53;71.93;97063.19;5050444;28;20045;-67
2020/12/17 12:24:39;;;;;;;55.28;8.60;;;;;;;5.48;71.71;97056.75;5063225;28;20054;-68
2020/12/17 12:27:07;;;;;;;54.15;8.90;;;;;;;5.44;71.91;97063.75;5069497;28;20041;-68
2020/12/17 12:29:33;;;;;;;47.65;9.10;;;;;;;5.41;72.56;97066.97;5070804;28;20629;-67
2020/12/17 12:31:59;;;;;;;65.80;9.85;;;;;;;5.33;73.08;97058.59;5070003;28;20427;-68